sensor_id;sensor_type;location;lat;lon;timestamp;pressure;altitude;pressure_sealevel;temperature;humidity
13041;BME280;6587;42.728;23.288;2023-12-04T00:00:22;95868.06;;;-1.54;71.95
13041;BME280;6587;42.728;23.288;2023-12-04T00:02:48;95865.94;;;-1.66;72.32
13041;BME280;6587;42.728;23.288;2023-12-04T00:05:22;95865.34;;;-1.63;72.12
13041;BME280;6587;42.728;23.288;2023-12-04T00:07:49;95871.94;;;-1.65;72.40
13041;BME280;6587;42.728;23.288;2023-12-04T00:10:17;95866.91;;;-1.62;72.21
13041;BME280;6587;42.728;23.288;2023-12-04T00:12:44;95877.34;;;-1.62;72.28
13041;BME280;6587;42.728;23.288;2023-12-04T00:15:11;95887.38;;;-1.55;72.01
13041;BME280;6587;42.728;23.288;2023-12-04T00:17:40;95886.13;;;-1.44;72.27
13041;BME280;6587;42.728;23.288;2023-12-04T00:20:32;95889.03;;;-1.45;71.57
13041;BME280;6587;42.728;23.288;2023-12-04T00:30:07;95912.69;;;-1.69;71.99
13041;BME280;6587;42.728;23.288;2023-12-04T00:33:01;95911.56;;;-1.49;72.50
13041;BME280;6587;42.728;23.288;2023-12-04T00:35:28;95910.22;;;-1.61;71.70
13041;BME280;6587;42.728;23.288;2023-12-04T00:37:54;95911.19;;;-1.43;71.71
13041;BME280;6587;42.728;23.288;2023-12-04T00:40:40;95917.38;;;-1.52;71.41
13041;BME280;6587;42.728;23.288;2023-12-04T00:43:34;95921.06;;;-1.53;71.46
13041;BME280;6587;42.728;23.288;2023-12-04T00:46:20;95921.84;;;-1.39;71.37
13041;BME280;6587;42.728;23.288;2023-12-04T00:48:48;95918.22;;;-1.30;70.77
13041;BME280;6587;42.728;23.288;2023-12-04T00:51:15;95913.22;;;-1.53;71.12
13041;BME280;6587;42.728;23.288;2023-12-04T00:57:10;95925.28;;;-1.71;71.75
13041;BME280;6587;42.728;23.288;2023-12-04T00:59:37;95920.06;;;-1.71;71.97
13041;BME280;6587;42.728;23.288;2023-12-04T01:02:23;95914.44;;;-1.78;71.61
13041;BME280;6587;42.728;23.288;2023-12-04T01:04:51;95921.50;;;-1.79;71.18
13041;BME280;6587;42.728;23.288;2023-12-04T01:07:18;95922.34;;;-1.83;71.24
13041;BME280;6587;42.728;23.288;2023-12-04T01:13:01;95922.47;;;-1.88;71.74
13041;BME280;6587;42.728;23.288;2023-12-04T01:18:35;95924.50;;;-1.85;71.37
13041;BME280;6587;42.728;23.288;2023-12-04T01:21:04;95931.25;;;-1.84;71.72
13041;BME280;6587;42.728;23.288;2023-12-04T01:23:31;95927.00;;;-1.80;71.97
13041;BME280;6587;42.728;23.288;2023-12-04T01:25:58;95923.22;;;-1.88;71.55
13041;BME280;6587;42.728;23.288;2023-12-04T01:28:25;95926.22;;;-1.81;71.40
13041;BME280;6587;42.728;23.288;2023-12-04T01:30:52;95928.75;;;-1.76;70.77
13041;BME280;6587;42.728;23.288;2023-12-04T01:33:19;95927.41;;;-1.73;71.16
13041;BME280;6587;42.728;23.288;2023-12-04T01:35:46;95936.31;;;-1.61;71.48
13041;BME280;6587;42.728;23.288;2023-12-04T01:38:21;95940.94;;;-1.71;70.56
13041;BME280;6587;42.728;23.288;2023-12-04T01:40:48;95953.28;;;-1.77;71.11
13041;BME280;6587;42.728;23.288;2023-12-04T01:43:21;95949.00;;;-1.86;70.67
13041;BME280;6587;42.728;23.288;2023-12-04T01:45:49;95946.31;;;-1.81;71.07
13041;BME280;6587;42.728;23.288;2023-12-04T01:48:17;95950.59;;;-1.72;70.83
13041;BME280;6587;42.728;23.288;2023-12-04T01:50:44;95946.81;;;-1.79;70.78
13041;BME280;6587;42.728;23.288;2023-12-04T01:53:15;95955.03;;;-1.72;70.95
13041;BME280;6587;42.728;23.288;2023-12-04T01:55:44;95962.28;;;-1.69;70.48
13041;BME280;6587;42.728;23.288;2023-12-04T01:58:12;95957.03;;;-1.96;70.23
13041;BME280;6587;42.728;23.288;2023-12-04T02:00:39;95959.63;;;-1.96;70.81
13041;BME280;6587;42.728;23.288;2023-12-04T02:03:06;95960.59;;;-1.92;70.68
13041;BME280;6587;42.728;23.288;2023-12-04T02:05:34;95960.31;;;-1.91;70.59
13041;BME280;6587;42.728;23.288;2023-12-04T02:08:02;95949.47;;;-1.98;70.23
13041;BME280;6587;42.728;23.288;2023-12-04T02:10:31;95965.44;;;-1.86;70.23
13041;BME280;6587;42.728;23.288;2023-12-04T02:13:07;95958.78;;;-1.92;70.34
13041;BME280;6587;42.728;23.288;2023-12-04T02:15:44;95958.91;;;-2.02;70.83
13041;BME280;6587;42.728;23.288;2023-12-04T02:18:12;95961.53;;;-2.02;70.46
13041;BME280;6587;42.728;23.288;2023-12-04T02:20:39;95961.59;;;-1.88;71.24
13041;BME280;6587;42.728;23.288;2023-12-04T02:23:06;95970.22;;;-1.74;70.75
13041;BME280;6587;42.728;23.288;2023-12-04T02:25:35;95974.88;;;-1.71;70.16
13041;BME280;6587;42.728;23.288;2023-12-04T02:28:12;95978.63;;;-1.77;70.12
13041;BME280;6587;42.728;23.288;2023-12-04T02:31:08;95979.94;;;-1.93;70.04
13041;BME280;6587;42.728;23.288;2023-12-04T02:33:36;95984.44;;;-1.99;70.69
13041;BME280;6587;42.728;23.288;2023-12-04T02:36:06;95980.50;;;-1.96;70.20
13041;BME280;6587;42.728;23.288;2023-12-04T02:38:40;95981.66;;;-2.02;69.67
13041;BME280;6587;42.728;23.288;2023-12-04T02:41:08;95983.78;;;-2.23;69.93
13041;BME280;6587;42.728;23.288;2023-12-04T02:43:38;95994.16;;;-2.18;70.58
13041;BME280;6587;42.728;23.288;2023-12-04T02:46:06;95993.19;;;-2.08;70.60
13041;BME280;6587;42.728;23.288;2023-12-04T02:48:32;95980.38;;;-2.23;70.33
13041;BME280;6587;42.728;23.288;2023-12-04T02:50:59;95990.47;;;-2.35;70.75
13041;BME280;6587;42.728;23.288;2023-12-04T02:53:27;95985.91;;;-2.43;70.76
13041;BME280;6587;42.728;23.288;2023-12-04T02:55:54;95989.00;;;-2.41;70.73
13041;BME280;6587;42.728;23.288;2023-12-04T02:58:24;95987.31;;;-2.32;70.81
13041;BME280;6587;42.728;23.288;2023-12-04T03:04:45;95987.50;;;-2.47;71.30
13041;BME280;6587;42.728;23.288;2023-12-04T03:07:12;95984.50;;;-2.54;71.44
13041;BME280;6587;42.728;23.288;2023-12-04T03:12:46;95994.06;;;-2.68;72.00
13041;BME280;6587;42.728;23.288;2023-12-04T03:15:15;95985.19;;;-2.67;71.63
13041;BME280;6587;42.728;23.288;2023-12-04T03:18:19;95987.31;;;-2.69;72.05
13041;BME280;6587;42.728;23.288;2023-12-04T03:20:49;95985.75;;;-2.70;72.19
13041;BME280;6587;42.728;23.288;2023-12-04T03:23:16;95992.09;;;-2.76;72.06
13041;BME280;6587;42.728;23.288;2023-12-04T03:25:44;96002.50;;;-2.76;72.00
13041;BME280;6587;42.728;23.288;2023-12-04T03:28:11;95990.25;;;-2.76;72.32
13041;BME280;6587;42.728;23.288;2023-12-04T03:30:46;95991.09;;;-2.80;72.68
13041;BME280;6587;42.728;23.288;2023-12-04T03:33:13;95997.84;;;-2.79;72.51
13041;BME280;6587;42.728;23.288;2023-12-04T03:35:40;96002.50;;;-2.76;72.39
13041;BME280;6587;42.728;23.288;2023-12-04T03:38:07;96002.72;;;-2.73;72.01
13041;BME280;6587;42.728;23.288;2023-12-04T03:40:33;96007.25;;;-2.83;72.10
13041;BME280;6587;42.728;23.288;2023-12-04T03:43:03;96002.78;;;-2.78;72.15
13041;BME280;6587;42.728;23.288;2023-12-04T03:45:30;96010.09;;;-2.80;71.48
13041;BME280;6587;42.728;23.288;2023-12-04T03:47:58;96021.63;;;-2.86;71.49
13041;BME280;6587;42.728;23.288;2023-12-04T03:50:25;96017.25;;;-2.90;71.87
13041;BME280;6587;42.728;23.288;2023-12-04T03:53:17;96023.25;;;-2.90;71.65
13041;BME280;6587;42.728;23.288;2023-12-04T03:55:44;96019.03;;;-2.86;71.52
13041;BME280;6587;42.728;23.288;2023-12-04T03:58:11;96022.41;;;-2.85;71.55
13041;BME280;6587;42.728;23.288;2023-12-04T04:00:48;96018.66;;;-2.98;71.49
13041;BME280;6587;42.728;23.288;2023-12-04T04:03:16;96018.78;;;-2.89;71.52
13041;BME280;6587;42.728;23.288;2023-12-04T04:06:08;96028.78;;;-2.96;71.61
13041;BME280;6587;42.728;23.288;2023-12-04T04:08:35;96023.06;;;-2.98;71.61
13041;BME280;6587;42.728;23.288;2023-12-04T04:11:02;96020.56;;;-3.08;71.76
13041;BME280;6587;42.728;23.288;2023-12-04T04:13:35;96036.09;;;-2.98;72.16
13041;BME280;6587;42.728;23.288;2023-12-04T04:16:03;96030.38;;;-3.00;71.95
13041;BME280;6587;42.728;23.288;2023-12-04T04:18:31;96028.56;;;-3.00;71.82
13041;BME280;6587;42.728;23.288;2023-12-04T04:20:58;96022.94;;;-3.07;71.47
13041;BME280;6587;42.728;23.288;2023-12-04T04:23:31;96030.47;;;-3.05;71.88
13041;BME280;6587;42.728;23.288;2023-12-04T04:25:58;96032.00;;;-3.04;71.90
13041;BME280;6587;42.728;23.288;2023-12-04T04:28:25;96040.41;;;-3.12;71.75
13041;BME280;6587;42.728;23.288;2023-12-04T04:30:52;96031.34;;;-3.15;72.21
13041;BME280;6587;42.728;23.288;2023-12-04T04:33:19;96036.88;;;-3.22;72.10
13041;BME280;6587;42.728;23.288;2023-12-04T04:35:47;96039.44;;;-3.16;71.96
13041;BME280;6587;42.728;23.288;2023-12-04T04:38:14;96037.97;;;-3.28;72.17
13041;BME280;6587;42.728;23.288;2023-12-04T04:40:41;96042.69;;;-3.30;72.15
13041;BME280;6587;42.728;23.288;2023-12-04T04:43:10;96042.44;;;-3.33;72.13
13041;BME280;6587;42.728;23.288;2023-12-04T04:45:45;96041.69;;;-3.34;72.25
13041;BME280;6587;42.728;23.288;2023-12-04T04:48:15;96044.19;;;-3.24;72.31
13041;BME280;6587;42.728;23.288;2023-12-04T04:54:12;96059.91;;;-3.34;71.78
13041;BME280;6587;42.728;23.288;2023-12-04T04:56:39;96049.97;;;-3.32;72.28
13041;BME280;6587;42.728;23.288;2023-12-04T04:59:12;96053.59;;;-3.28;72.13
13041;BME280;6587;42.728;23.288;2023-12-04T05:01:39;96048.44;;;-3.33;71.90
13041;BME280;6587;42.728;23.288;2023-12-04T05:04:06;96050.03;;;-3.37;71.67
13041;BME280;6587;42.728;23.288;2023-12-04T05:06:33;96055.69;;;-3.30;71.56
13041;BME280;6587;42.728;23.288;2023-12-04T05:09:00;96051.47;;;-3.26;71.16
13041;BME280;6587;42.728;23.288;2023-12-04T05:11:28;96059.00;;;-3.24;71.33
13041;BME280;6587;42.728;23.288;2023-12-04T05:13:55;96061.69;;;-3.29;71.55
13041;BME280;6587;42.728;23.288;2023-12-04T05:16:22;96056.69;;;-3.26;71.30
13041;BME280;6587;42.728;23.288;2023-12-04T05:18:49;96059.78;;;-3.24;71.45
13041;BME280;6587;42.728;23.288;2023-12-04T05:21:16;96062.69;;;-3.25;70.97
13041;BME280;6587;42.728;23.288;2023-12-04T05:23:43;96053.94;;;-3.10;71.26
13041;BME280;6587;42.728;23.288;2023-12-04T05:26:10;96059.03;;;-3.00;70.53
13041;BME280;6587;42.728;23.288;2023-12-04T05:28:39;96058.97;;;-3.19;70.94
13041;BME280;6587;42.728;23.288;2023-12-04T05:31:06;96051.75;;;-3.27;70.98
13041;BME280;6587;42.728;23.288;2023-12-04T05:33:33;96065.50;;;-3.22;72.04
13041;BME280;6587;42.728;23.288;2023-12-04T05:36:00;96063.63;;;-3.16;71.26
13041;BME280;6587;42.728;23.288;2023-12-04T05:38:46;96076.44;;;-3.19;70.88
13041;BME280;6587;42.728;23.288;2023-12-04T05:41:12;96075.41;;;-3.24;71.63
13041;BME280;6587;42.728;23.288;2023-12-04T05:43:41;96070.69;;;-3.16;71.38
13041;BME280;6587;42.728;23.288;2023-12-04T05:46:08;96074.59;;;-3.19;71.31
13041;BME280;6587;42.728;23.288;2023-12-04T05:48:35;96065.56;;;-3.27;71.15
13041;BME280;6587;42.728;23.288;2023-12-04T05:51:02;96070.13;;;-3.13;70.58
13041;BME280;6587;42.728;23.288;2023-12-04T05:53:29;96075.81;;;-3.11;71.01
13041;BME280;6587;42.728;23.288;2023-12-04T05:55:55;96073.66;;;-3.04;70.83
13041;BME280;6587;42.728;23.288;2023-12-04T05:58:22;96076.53;;;-3.06;70.62
13041;BME280;6587;42.728;23.288;2023-12-04T06:00:51;96077.38;;;-3.10;70.51
13041;BME280;6587;42.728;23.288;2023-12-04T06:03:18;96083.56;;;-3.06;70.52
13041;BME280;6587;42.728;23.288;2023-12-04T06:05:45;96076.31;;;-3.09;70.27
13041;BME280;6587;42.728;23.288;2023-12-04T06:08:11;96089.38;;;-3.14;70.16
13041;BME280;6587;42.728;23.288;2023-12-04T06:10:38;96085.75;;;-3.13;69.87
13041;BME280;6587;42.728;23.288;2023-12-04T06:13:05;96083.25;;;-3.00;70.12
13041;BME280;6587;42.728;23.288;2023-12-04T06:15:32;96089.28;;;-3.04;70.04
13041;BME280;6587;42.728;23.288;2023-12-04T06:18:00;96092.59;;;-2.99;69.83
13041;BME280;6587;42.728;23.288;2023-12-04T06:20:27;96094.22;;;-2.79;70.73
13041;BME280;6587;42.728;23.288;2023-12-04T06:22:54;96097.38;;;-2.35;70.99
13041;BME280;6587;42.728;23.288;2023-12-04T06:25:22;96112.00;;;-2.39;70.27
13041;BME280;6587;42.728;23.288;2023-12-04T06:27:49;96105.53;;;-1.86;71.00
13041;BME280;6587;42.728;23.288;2023-12-04T06:30:18;96100.56;;;-2.62;68.61
13041;BME280;6587;42.728;23.288;2023-12-04T06:32:45;96108.19;;;-2.70;69.30
13041;BME280;6587;42.728;23.288;2023-12-04T06:35:15;96108.03;;;-2.79;69.27
13041;BME280;6587;42.728;23.288;2023-12-04T06:37:43;96112.41;;;-2.74;68.97
13041;BME280;6587;42.728;23.288;2023-12-04T06:40:11;96116.13;;;-2.80;69.05
13041;BME280;6587;42.728;23.288;2023-12-04T06:42:39;96111.13;;;-2.77;68.88
13041;BME280;6587;42.728;23.288;2023-12-04T06:45:07;96123.81;;;-2.70;68.92
13041;BME280;6587;42.728;23.288;2023-12-04T06:47:35;96130.09;;;-2.71;68.87
13041;BME280;6587;42.728;23.288;2023-12-04T06:50:03;96124.88;;;-2.71;68.87
13041;BME280;6587;42.728;23.288;2023-12-04T06:52:31;96127.31;;;-2.56;68.70
13041;BME280;6587;42.728;23.288;2023-12-04T06:54:58;96127.03;;;-2.78;68.22
13041;BME280;6587;42.728;23.288;2023-12-04T06:57:25;96140.75;;;-2.68;68.49
13041;BME280;6587;42.728;23.288;2023-12-04T06:59:52;96130.84;;;-2.71;68.31
13041;BME280;6587;42.728;23.288;2023-12-04T07:02:19;96134.28;;;-2.75;68.37
13041;BME280;6587;42.728;23.288;2023-12-04T07:04:46;96126.44;;;-2.47;68.23
13041;BME280;6587;42.728;23.288;2023-12-04T07:07:13;96136.44;;;-2.54;68.11
13041;BME280;6587;42.728;23.288;2023-12-04T07:09:41;96138.47;;;-2.51;68.25
13041;BME280;6587;42.728;23.288;2023-12-04T07:12:08;96144.81;;;-2.57;68.15
13041;BME280;6587;42.728;23.288;2023-12-04T07:14:35;96139.13;;;-2.40;68.17
13041;BME280;6587;42.728;23.288;2023-12-04T07:17:02;96143.13;;;-2.48;67.54
13041;BME280;6587;42.728;23.288;2023-12-04T07:19:29;96145.13;;;-2.63;68.01
13041;BME280;6587;42.728;23.288;2023-12-04T07:21:56;96146.06;;;-2.31;68.39
13041;BME280;6587;42.728;23.288;2023-12-04T07:24:23;96144.34;;;-2.40;67.46
13041;BME280;6587;42.728;23.288;2023-12-04T07:26:53;96148.38;;;-2.29;67.42
13041;BME280;6587;42.728;23.288;2023-12-04T07:29:20;96142.78;;;-2.18;66.90
13041;BME280;6587;42.728;23.288;2023-12-04T07:31:47;96148.72;;;-2.36;67.32
13041;BME280;6587;42.728;23.288;2023-12-04T07:34:13;96152.09;;;-2.35;67.54
13041;BME280;6587;42.728;23.288;2023-12-04T07:36:41;96145.78;;;-2.29;67.12
13041;BME280;6587;42.728;23.288;2023-12-04T07:39:09;96144.94;;;-2.48;67.45
13041;BME280;6587;42.728;23.288;2023-12-04T07:41:36;96146.56;;;-2.29;67.47
13041;BME280;6587;42.728;23.288;2023-12-04T07:44:05;96138.41;;;-2.04;67.42
13041;BME280;6587;42.728;23.288;2023-12-04T07:46:32;96151.31;;;-1.94;66.30
13041;BME280;6587;42.728;23.288;2023-12-04T07:48:58;96147.44;;;-1.96;66.48
13041;BME280;6587;42.728;23.288;2023-12-04T07:51:25;96142.78;;;-1.99;65.88
13041;BME280;6587;42.728;23.288;2023-12-04T07:53:53;96136.28;;;-1.83;66.13
13041;BME280;6587;42.728;23.288;2023-12-04T07:56:20;96152.38;;;-1.76;65.86
13041;BME280;6587;42.728;23.288;2023-12-04T07:58:46;96151.13;;;-1.60;65.15
13041;BME280;6587;42.728;23.288;2023-12-04T08:01:15;96154.41;;;-1.73;65.22
13041;BME280;6587;42.728;23.288;2023-12-04T08:03:42;96164.00;;;-1.69;65.20
13041;BME280;6587;42.728;23.288;2023-12-04T08:06:09;96153.72;;;-1.60;64.63
13041;BME280;6587;42.728;23.288;2023-12-04T08:08:35;96157.88;;;-1.59;64.17
13041;BME280;6587;42.728;23.288;2023-12-04T08:11:03;96167.19;;;-1.53;63.80
13041;BME280;6587;42.728;23.288;2023-12-04T08:13:30;96172.13;;;-1.70;63.58
13041;BME280;6587;42.728;23.288;2023-12-04T08:15:57;96157.31;;;-1.56;63.66
13041;BME280;6587;42.728;23.288;2023-12-04T08:18:25;96173.53;;;-1.59;63.47
13041;BME280;6587;42.728;23.288;2023-12-04T08:20:52;96159.03;;;-1.33;63.54
13041;BME280;6587;42.728;23.288;2023-12-04T08:23:18;96160.53;;;-1.27;62.28
13041;BME280;6587;42.728;23.288;2023-12-04T08:25:45;96159.06;;;-1.01;61.91
13041;BME280;6587;42.728;23.288;2023-12-04T08:28:12;96159.06;;;-0.87;61.12
13041;BME280;6587;42.728;23.288;2023-12-04T08:30:39;96161.75;;;-0.92;61.36
13041;BME280;6587;42.728;23.288;2023-12-04T08:33:06;96165.75;;;-0.95;60.50
13041;BME280;6587;42.728;23.288;2023-12-04T08:35:34;96170.16;;;-0.63;60.44
13041;BME280;6587;42.728;23.288;2023-12-04T08:38:01;96160.09;;;-0.56;60.34
13041;BME280;6587;42.728;23.288;2023-12-04T08:40:28;96155.34;;;-0.41;59.27
13041;BME280;6587;42.728;23.288;2023-12-04T08:42:55;96157.75;;;-0.17;59.18
13041;BME280;6587;42.728;23.288;2023-12-04T08:45:22;96157.19;;;-0.28;58.78
13041;BME280;6587;42.728;23.288;2023-12-04T08:47:49;96157.19;;;-0.55;59.28
13041;BME280;6587;42.728;23.288;2023-12-04T08:50:17;96160.22;;;-0.21;58.64
13041;BME280;6587;42.728;23.288;2023-12-04T08:52:45;96155.59;;;-0.02;58.00
13041;BME280;6587;42.728;23.288;2023-12-04T08:55:12;96158.31;;;0.07;56.92
13041;BME280;6587;42.728;23.288;2023-12-04T08:57:39;96157.53;;;0.07;57.35
13041;BME280;6587;42.728;23.288;2023-12-04T09:00:07;96151.94;;;-0.01;57.19
13041;BME280;6587;42.728;23.288;2023-12-04T09:02:34;96147.72;;;-0.24;57.63
13041;BME280;6587;42.728;23.288;2023-12-04T09:05:01;96151.47;;;-0.30;58.19
13041;BME280;6587;42.728;23.288;2023-12-04T09:07:27;96138.81;;;0.13;58.14
13041;BME280;6587;42.728;23.288;2023-12-04T09:09:56;96133.72;;;0.44;56.98
13041;BME280;6587;42.728;23.288;2023-12-04T09:12:23;96127.50;;;0.62;56.93
13041;BME280;6587;42.728;23.288;2023-12-04T09:14:50;96130.06;;;0.97;55.64
13041;BME280;6587;42.728;23.288;2023-12-04T09:17:17;96125.41;;;0.94;54.97
13041;BME280;6587;42.728;23.288;2023-12-04T09:19:43;96124.78;;;0.67;55.44
13041;BME280;6587;42.728;23.288;2023-12-04T09:22:10;96120.44;;;0.84;55.68
13041;BME280;6587;42.728;23.288;2023-12-04T09:24:37;96126.78;;;1.22;54.86
13041;BME280;6587;42.728;23.288;2023-12-04T09:27:05;96120.72;;;1.92;53.89
13041;BME280;6587;42.728;23.288;2023-12-04T09:29:33;96118.66;;;1.72;54.09
13041;BME280;6587;42.728;23.288;2023-12-04T09:32:00;96118.25;;;2.04;52.68
13041;BME280;6587;42.728;23.288;2023-12-04T09:34:27;96115.06;;;2.41;52.31
13041;BME280;6587;42.728;23.288;2023-12-04T09:36:53;96124.16;;;1.53;53.31
13041;BME280;6587;42.728;23.288;2023-12-04T09:39:20;96125.34;;;1.38;54.08
13041;BME280;6587;42.728;23.288;2023-12-04T09:41:47;96118.53;;;1.85;53.63
13041;BME280;6587;42.728;23.288;2023-12-04T09:44:16;96120.09;;;1.95;52.89
13041;BME280;6587;42.728;23.288;2023-12-04T09:46:43;96116.28;;;2.09;52.76
13041;BME280;6587;42.728;23.288;2023-12-04T09:49:11;96110.06;;;1.97;52.78
13041;BME280;6587;42.728;23.288;2023-12-04T09:51:38;96107.47;;;2.73;52.27
13041;BME280;6587;42.728;23.288;2023-12-04T09:54:05;96101.56;;;4.27;49.95
13041;BME280;6587;42.728;23.288;2023-12-04T09:56:34;96093.75;;;5.04;48.86
13041;BME280;6587;42.728;23.288;2023-12-04T09:59:01;96099.31;;;5.47;46.66
13041;BME280;6587;42.728;23.288;2023-12-04T10:01:31;96091.84;;;4.93;46.00
13041;BME280;6587;42.728;23.288;2023-12-04T10:03:59;96095.69;;;5.40;46.78
13041;BME280;6587;42.728;23.288;2023-12-04T10:06:27;96088.56;;;6.80;43.37
13041;BME280;6587;42.728;23.288;2023-12-04T10:08:55;96090.88;;;7.71;42.00
13041;BME280;6587;42.728;23.288;2023-12-04T10:11:22;96088.66;;;6.56;42.68
13041;BME280;6587;42.728;23.288;2023-12-04T10:13:50;96103.88;;;6.59;43.76
13041;BME280;6587;42.728;23.288;2023-12-04T10:19:16;96092.22;;;8.65;42.58
13041;BME280;6587;42.728;23.288;2023-12-04T10:21:44;96092.53;;;8.10;39.79
13041;BME280;6587;42.728;23.288;2023-12-04T10:24:11;96081.38;;;7.08;41.50
13041;BME280;6587;42.728;23.288;2023-12-04T10:26:49;96075.91;;;7.78;41.56
13041;BME280;6587;42.728;23.288;2023-12-04T10:29:17;96076.78;;;7.82;39.28
13041;BME280;6587;42.728;23.288;2023-12-04T10:31:44;96066.78;;;9.02;40.15
13041;BME280;6587;42.728;23.288;2023-12-04T10:34:11;96065.59;;;10.42;37.06
13041;BME280;6587;42.728;23.288;2023-12-04T10:36:39;96068.31;;;11.52;35.36
13041;BME280;6587;42.728;23.288;2023-12-04T10:39:06;96065.00;;;11.29;34.54
13041;BME280;6587;42.728;23.288;2023-12-04T10:41:59;96061.91;;;12.07;34.07
13041;BME280;6587;42.728;23.288;2023-12-04T10:44:27;96059.69;;;12.23;32.27
13041;BME280;6587;42.728;23.288;2023-12-04T10:46:56;96057.81;;;13.20;32.09
13041;BME280;6587;42.728;23.288;2023-12-04T10:49:26;96049.38;;;14.38;30.88
13041;BME280;6587;42.728;23.288;2023-12-04T10:51:56;96053.63;;;15.83;28.92
13041;BME280;6587;42.728;23.288;2023-12-04T10:54:25;96063.00;;;16.83;28.42
13041;BME280;6587;42.728;23.288;2023-12-04T10:56:52;96064.25;;;16.38;27.58
13041;BME280;6587;42.728;23.288;2023-12-04T10:59:27;96075.41;;;14.16;29.19
13041;BME280;6587;42.728;23.288;2023-12-04T11:01:59;96075.53;;;15.78;28.63
13041;BME280;6587;42.728;23.288;2023-12-04T11:04:31;96067.63;;;16.05;28.42
13041;BME280;6587;42.728;23.288;2023-12-04T11:07:02;96052.41;;;18.71;25.72
13041;BME280;6587;42.728;23.288;2023-12-04T11:09:29;96047.28;;;17.38;25.08
13041;BME280;6587;42.728;23.288;2023-12-04T11:12:03;96045.47;;;17.32;26.23
13041;BME280;6587;42.728;23.288;2023-12-04T11:14:37;96053.56;;;18.04;25.63
13041;BME280;6587;42.728;23.288;2023-12-04T11:17:08;96047.28;;;18.34;25.60
13041;BME280;6587;42.728;23.288;2023-12-04T11:19:40;96034.81;;;18.20;25.08
13041;BME280;6587;42.728;23.288;2023-12-04T11:22:12;96031.56;;;19.46;24.83
13041;BME280;6587;42.728;23.288;2023-12-04T11:24:40;96033.91;;;19.76;24.06
13041;BME280;6587;42.728;23.288;2023-12-04T11:27:08;96027.34;;;18.08;24.89
13041;BME280;6587;42.728;23.288;2023-12-04T11:29:36;96029.03;;;18.64;24.56
13041;BME280;6587;42.728;23.288;2023-12-04T11:32:05;96025.69;;;18.96;24.89
13041;BME280;6587;42.728;23.288;2023-12-04T11:34:35;96024.09;;;18.59;24.31
13041;BME280;6587;42.728;23.288;2023-12-04T11:37:02;96022.69;;;17.36;25.67
13041;BME280;6587;42.728;23.288;2023-12-04T11:39:33;96023.94;;;17.58;25.69
13041;BME280;6587;42.728;23.288;2023-12-04T11:42:00;96008.28;;;17.50;25.95
13041;BME280;6587;42.728;23.288;2023-12-04T11:44:28;96007.97;;;17.48;25.75
13041;BME280;6587;42.728;23.288;2023-12-04T11:46:56;96005.00;;;17.88;25.15
13041;BME280;6587;42.728;23.288;2023-12-04T11:49:29;95997.00;;;18.04;25.04
13041;BME280;6587;42.728;23.288;2023-12-04T11:51:57;95992.59;;;18.92;24.77
13041;BME280;6587;42.728;23.288;2023-12-04T11:54:26;96002.34;;;19.06;23.96
13041;BME280;6587;42.728;23.288;2023-12-04T11:56:59;95998.59;;;20.44;22.91
13041;BME280;6587;42.728;23.288;2023-12-04T11:59:26;95989.69;;;19.38;23.83
13041;BME280;6587;42.728;23.288;2023-12-04T12:01:55;95988.31;;;19.78;23.86
13041;BME280;6587;42.728;23.288;2023-12-04T12:04:23;95984.69;;;18.65;24.58
13041;BME280;6587;42.728;23.288;2023-12-04T12:06:50;95989.00;;;16.38;27.38
13041;BME280;6587;42.728;23.288;2023-12-04T12:09:17;95980.81;;;18.66;24.84
13041;BME280;6587;42.728;23.288;2023-12-04T12:11:45;95980.19;;;18.39;23.84
13041;BME280;6587;42.728;23.288;2023-12-04T12:14:13;95972.13;;;16.71;26.03
13041;BME280;6587;42.728;23.288;2023-12-04T12:16:40;95971.25;;;17.57;26.14
13041;BME280;6587;42.728;23.288;2023-12-04T12:19:08;95966.31;;;19.48;25.45
13041;BME280;6587;42.728;23.288;2023-12-04T12:21:35;95972.50;;;19.13;23.70
13041;BME280;6587;42.728;23.288;2023-12-04T12:24:03;95966.78;;;18.55;24.88
13041;BME280;6587;42.728;23.288;2023-12-04T12:26:32;95958.91;;;18.64;25.86
13041;BME280;6587;42.728;23.288;2023-12-04T12:28:59;95962.88;;;19.12;25.41
13041;BME280;6587;42.728;23.288;2023-12-04T12:31:27;95963.69;;;20.21;23.71
13041;BME280;6587;42.728;23.288;2023-12-04T12:33:55;95953.41;;;18.09;24.90
13041;BME280;6587;42.728;23.288;2023-12-04T12:36:22;95956.25;;;15.76;27.88
13041;BME280;6587;42.728;23.288;2023-12-04T12:38:49;95951.81;;;14.42;28.72
13041;BME280;6587;42.728;23.288;2023-12-04T12:41:16;95951.44;;;14.40;29.60
13041;BME280;6587;42.728;23.288;2023-12-04T12:43:43;95948.38;;;15.99;28.56
13041;BME280;6587;42.728;23.288;2023-12-04T12:46:10;95948.25;;;15.24;28.76
13041;BME280;6587;42.728;23.288;2023-12-04T12:48:38;95946.03;;;15.12;29.53
13041;BME280;6587;42.728;23.288;2023-12-04T12:51:07;95940.41;;;14.96;29.45
13041;BME280;6587;42.728;23.288;2023-12-04T12:53:36;95940.47;;;15.44;28.95
13041;BME280;6587;42.728;23.288;2023-12-04T12:56:04;95938.72;;;16.05;29.37
13041;BME280;6587;42.728;23.288;2023-12-04T12:58:31;95932.22;;;16.36;28.96
13041;BME280;6587;42.728;23.288;2023-12-04T13:01:00;95932.22;;;15.61;30.41
13041;BME280;6587;42.728;23.288;2023-12-04T13:03:28;95929.22;;;15.59;29.16
13041;BME280;6587;42.728;23.288;2023-12-04T13:05:58;95929.16;;;14.54;29.89
13041;BME280;6587;42.728;23.288;2023-12-04T13:08:24;95930.88;;;14.85;31.33
13041;BME280;6587;42.728;23.288;2023-12-04T13:10:51;95934.09;;;15.20;30.88
13041;BME280;6587;42.728;23.288;2023-12-04T13:13:18;95939.47;;;15.20;30.18
13041;BME280;6587;42.728;23.288;2023-12-04T13:15:45;95938.41;;;15.58;30.11
13041;BME280;6587;42.728;23.288;2023-12-04T13:18:12;95937.13;;;14.68;31.87
13041;BME280;6587;42.728;23.288;2023-12-04T13:20:38;95937.53;;;14.63;31.55
13041;BME280;6587;42.728;23.288;2023-12-04T13:23:07;95936.34;;;13.67;32.66
13041;BME280;6587;42.728;23.288;2023-12-04T13:25:33;95942.75;;;13.94;32.60
13041;BME280;6587;42.728;23.288;2023-12-04T13:28:00;95942.38;;;12.65;34.41
13041;BME280;6587;42.728;23.288;2023-12-04T13:30:27;95934.03;;;12.92;34.57
13041;BME280;6587;42.728;23.288;2023-12-04T13:32:54;95932.91;;;13.56;34.24
13041;BME280;6587;42.728;23.288;2023-12-04T13:35:21;95931.31;;;12.81;34.14
13041;BME280;6587;42.728;23.288;2023-12-04T13:37:48;95921.81;;;12.94;34.34
13041;BME280;6587;42.728;23.288;2023-12-04T13:40:23;95926.34;;;12.58;34.86